sensor_id;sensor_type;location;lat;lon;timestamp;P1;durP1;ratioP1;P2;durP2;ratioP2
80381;SDS011;69692;55.820;37.490;2023-07-02T00:02:21;8.38;;;6.88;;
80381;SDS011;69692;55.820;37.490;2023-07-02T00:04:47;8.18;;;6.68;;
80381;SDS011;69692;55.820;37.490;2023-07-02T00:07:13;8.30;;;6.32;;
80381;SDS011;69692;55.820;37.490;2023-07-02T00:09:42;11.93;;;7.50;;
80381;SDS011;69692;55.820;37.490;2023-07-02T00:12:08;7.90;;;7.05;;
80381;SDS011;69692;55.820;37.490;2023-07-02T00:14:34;7.88;;;6.07;;
80381;SDS011;69692;55.820;37.490;2023-07-02T00:17:00;10.93;;;7.38;;
80381;SDS011;69692;55.820;37.490;2023-07-02T00:19:26;9.13;;;7.78;;
80381;SDS011;69692;55.820;37.490;2023-07-02T00:21:52;9.82;;;6.93;;
80381;SDS011;69692;55.820;37.490;2023-07-02T00:24:19;9.55;;;7.55;;
80381;SDS011;69692;55.820;37.490;2023-07-02T00:26:45;8.95;;;7.10;;
80381;SDS011;69692;55.820;37.490;2023-07-02T00:29:13;11.65;;;7.25;;
80381;SDS011;69692;55.820;37.490;2023-07-02T00:31:39;11.05;;;7.65;;
80381;SDS011;69692;55.820;37.490;2023-07-02T00:34:05;7.97;;;6.85;;
80381;SDS011;69692;55.820;37.490;2023-07-02T00:36:31;9.30;;;7.13;;
80381;SDS011;69692;55.820;37.490;2023-07-02T00:38:58;12.02;;;7.93;;
80381;SDS011;69692;55.820;37.490;2023-07-02T00:41:24;9.18;;;6.63;;
80381;SDS011;69692;55.820;37.490;2023-07-02T00:43:50;8.60;;;7.20;;
80381;SDS011;69692;55.820;37.490;2023-07-02T00:46:21;15.40;;;8.30;;
80381;SDS011;69692;55.820;37.490;2023-07-02T00:51:15;7.93;;;7.13;;
80381;SDS011;69692;55.820;37.490;2023-07-02T00:53:46;9.57;;;7.30;;
80381;SDS011;69692;55.820;37.490;2023-07-02T00:56:13;11.73;;;7.80;;
80381;SDS011;69692;55.820;37.490;2023-07-02T00:58:40;9.80;;;7.00;;
80381;SDS011;69692;55.820;37.490;2023-07-02T01:01:14;13.48;;;7.50;;
80381;SDS011;69692;55.820;37.490;2023-07-02T01:06:29;10.18;;;7.60;;
80381;SDS011;69692;55.820;37.490;2023-07-02T01:09:06;8.82;;;6.45;;
80381;SDS011;69692;55.820;37.490;2023-07-02T01:11:43;10.13;;;7.13;;
80381;SDS011;69692;55.820;37.490;2023-07-02T01:14:17;10.35;;;7.13;;
80381;SDS011;69692;55.820;37.490;2023-07-02T01:17:02;9.52;;;6.78;;
80381;SDS011;69692;55.820;37.490;2023-07-02T01:22:25;10.50;;;7.72;;
80381;SDS011;69692;55.820;37.490;2023-07-02T01:24:54;12.90;;;8.18;;
80381;SDS011;69692;55.820;37.490;2023-07-02T01:27:21;9.23;;;7.43;;
80381;SDS011;69692;55.820;37.490;2023-07-02T01:29:50;10.52;;;6.82;;
80381;SDS011;69692;55.820;37.490;2023-07-02T01:32:18;12.80;;;7.18;;
80381;SDS011;69692;55.820;37.490;2023-07-02T01:34:44;10.32;;;7.20;;
80381;SDS011;69692;55.820;37.490;2023-07-02T01:37:17;9.60;;;7.55;;
80381;SDS011;69692;55.820;37.490;2023-07-02T01:39:43;9.15;;;7.72;;
80381;SDS011;69692;55.820;37.490;2023-07-02T01:42:12;9.73;;;6.78;;
80381;SDS011;69692;55.820;37.490;2023-07-02T01:44:43;11.35;;;7.03;;
80381;SDS011;69692;55.820;37.490;2023-07-02T01:47:10;7.97;;;6.97;;
80381;SDS011;69692;55.820;37.490;2023-07-02T01:49:37;9.68;;;6.63;;
80381;SDS011;69692;55.820;37.490;2023-07-02T01:52:04;9.95;;;7.68;;
80381;SDS011;69692;55.820;37.490;2023-07-02T01:54:30;12.52;;;7.40;;
80381;SDS011;69692;55.820;37.490;2023-07-02T01:56:58;8.55;;;6.85;;
80381;SDS011;69692;55.820;37.490;2023-07-02T01:59:24;9.35;;;7.40;;
80381;SDS011;69692;55.820;37.490;2023-07-02T02:01:50;13.98;;;6.80;;
80381;SDS011;69692;55.820;37.490;2023-07-02T02:04:16;12.23;;;7.13;;
80381;SDS011;69692;55.820;37.490;2023-07-02T02:06:42;8.70;;;7.07;;
80381;SDS011;69692;55.820;37.490;2023-07-02T02:09:08;9.45;;;7.07;;
80381;SDS011;69692;55.820;37.490;2023-07-02T02:11:41;9.45;;;7.40;;
80381;SDS011;69692;55.820;37.490;2023-07-02T02:14:09;9.27;;;6.97;;
80381;SDS011;69692;55.820;37.490;2023-07-02T02:16:36;9.85;;;7.55;;
80381;SDS011;69692;55.820;37.490;2023-07-02T02:19:02;10.88;;;7.70;;
80381;SDS011;69692;55.820;37.490;2023-07-02T02:21:28;8.88;;;6.70;;
80381;SDS011;69692;55.820;37.490;2023-07-02T02:23:54;9.82;;;7.03;;
80381;SDS011;69692;55.820;37.490;2023-07-02T02:26:20;10.90;;;7.22;;
80381;SDS011;69692;55.820;37.490;2023-07-02T02:28:47;8.07;;;6.95;;
80381;SDS011;69692;55.820;37.490;2023-07-02T02:31:15;12.95;;;6.95;;
80381;SDS011;69692;55.820;37.490;2023-07-02T02:33:41;9.48;;;6.65;;
80381;SDS011;69692;55.820;37.490;2023-07-02T02:36:07;10.02;;;6.53;;
80381;SDS011;69692;55.820;37.490;2023-07-02T02:38:33;9.77;;;6.10;;
80381;SDS011;69692;55.820;37.490;2023-07-02T02:41:01;10.02;;;6.82;;
80381;SDS011;69692;55.820;37.490;2023-07-02T02:43:31;10.32;;;7.63;;
80381;SDS011;69692;55.820;37.490;2023-07-02T02:45:57;8.27;;;7.05;;
80381;SDS011;69692;55.820;37.490;2023-07-02T02:48:23;9.80;;;8.30;;
80381;SDS011;69692;55.820;37.490;2023-07-02T02:50:49;8.18;;;6.43;;
80381;SDS011;69692;55.820;37.490;2023-07-02T02:53:15;8.88;;;6.65;;
80381;SDS011;69692;55.820;37.490;2023-07-02T02:55:41;8.90;;;7.18;;
80381;SDS011;69692;55.820;37.490;2023-07-02T02:58:07;11.23;;;7.15;;
80381;SDS011;69692;55.820;37.490;2023-07-02T03:00:32;10.93;;;7.57;;
80381;SDS011;69692;55.820;37.490;2023-07-02T03:02:58;7.55;;;6.20;;
80381;SDS011;69692;55.820;37.490;2023-07-02T03:05:24;9.48;;;7.70;;
80381;SDS011;69692;55.820;37.490;2023-07-02T03:07:51;8.38;;;7.45;;
80381;SDS011;69692;55.820;37.490;2023-07-02T03:10:17;9.05;;;7.18;;
80381;SDS011;69692;55.820;37.490;2023-07-02T03:12:47;7.82;;;6.78;;
80381;SDS011;69692;55.820;37.490;2023-07-02T03:15:13;8.35;;;6.18;;
80381;SDS011;69692;55.820;37.490;2023-07-02T03:17:39;9.68;;;7.68;;
80381;SDS011;69692;55.820;37.490;2023-07-02T03:20:05;8.50;;;6.22;;
80381;SDS011;69692;55.820;37.490;2023-07-02T03:22:34;7.90;;;6.22;;
80381;SDS011;69692;55.820;37.490;2023-07-02T03:25:00;9.02;;;6.97;;
80381;SDS011;69692;55.820;37.490;2023-07-02T03:27:29;9.00;;;7.13;;
80381;SDS011;69692;55.820;37.490;2023-07-02T03:29:55;8.50;;;6.50;;
80381;SDS011;69692;55.820;37.490;2023-07-02T03:32:21;8.88;;;6.88;;
80381;SDS011;69692;55.820;37.490;2023-07-02T03:34:47;10.65;;;6.85;;
80381;SDS011;69692;55.820;37.490;2023-07-02T03:37:12;13.43;;;6.13;;
80381;SDS011;69692;55.820;37.490;2023-07-02T03:39:38;8.00;;;6.30;;
80381;SDS011;69692;55.820;37.490;2023-07-02T03:42:05;9.35;;;5.82;;
80381;SDS011;69692;55.820;37.490;2023-07-02T03:44:31;7.47;;;6.10;;
80381;SDS011;69692;55.820;37.490;2023-07-02T03:46:57;11.23;;;7.03;;
80381;SDS011;69692;55.820;37.490;2023-07-02T03:49:22;8.88;;;6.32;;
80381;SDS011;69692;55.820;37.490;2023-07-02T03:51:48;8.88;;;6.40;;
80381;SDS011;69692;55.820;37.490;2023-07-02T03:54:14;8.90;;;6.15;;
80381;SDS011;69692;55.820;37.490;2023-07-02T03:56:40;7.03;;;6.03;;
80381;SDS011;69692;55.820;37.490;2023-07-02T03:59:05;11.00;;;6.47;;
80381;SDS011;69692;55.820;37.490;2023-07-02T04:01:31;7.70;;;5.53;;
80381;SDS011;69692;55.820;37.490;2023-07-02T04:03:57;10.30;;;5.82;;
80381;SDS011;69692;55.820;37.490;2023-07-02T04:06:23;8.18;;;6.05;;
80381;SDS011;69692;55.820;37.490;2023-07-02T04:08:49;15.65;;;5.18;;
80381;SDS011;69692;55.820;37.490;2023-07-02T04:11:15;10.15;;;6.40;;
80381;SDS011;69692;55.820;37.490;2023-07-02T04:13:41;10.50;;;5.38;;
80381;SDS011;69692;55.820;37.490;2023-07-02T04:16:07;7.65;;;5.60;;
80381;SDS011;69692;55.820;37.490;2023-07-02T04:18:32;8.05;;;5.03;;
80381;SDS011;69692;55.820;37.490;2023-07-02T04:20:58;8.38;;;5.28;;
80381;SDS011;69692;55.820;37.490;2023-07-02T04:23:25;9.65;;;5.43;;
80381;SDS011;69692;55.820;37.490;2023-07-02T04:25:51;6.43;;;5.20;;
80381;SDS011;69692;55.820;37.490;2023-07-02T04:28:17;10.63;;;5.40;;
80381;SDS011;69692;55.820;37.490;2023-07-02T04:30:45;8.93;;;5.20;;
80381;SDS011;69692;55.820;37.490;2023-07-02T04:33:15;7.55;;;5.50;;
80381;SDS011;69692;55.820;37.490;2023-07-02T04:35:42;8.05;;;5.30;;
80381;SDS011;69692;55.820;37.490;2023-07-02T04:38:08;9.10;;;5.25;;
80381;SDS011;69692;55.820;37.490;2023-07-02T04:40:35;9.85;;;4.60;;
80381;SDS011;69692;55.820;37.490;2023-07-02T04:43:01;8.65;;;5.03;;
80381;SDS011;69692;55.820;37.490;2023-07-02T04:45:28;7.78;;;5.20;;
80381;SDS011;69692;55.820;37.490;2023-07-02T04:48:05;6.88;;;5.10;;
80381;SDS011;69692;55.820;37.490;2023-07-02T04:50:31;9.13;;;4.88;;
80381;SDS011;69692;55.820;37.490;2023-07-02T04:52:57;7.35;;;5.18;;
80381;SDS011;69692;55.820;37.490;2023-07-02T04:55:23;9.23;;;5.40;;
80381;SDS011;69692;55.820;37.490;2023-07-02T04:57:49;7.43;;;5.50;;
80381;SDS011;69692;55.820;37.490;2023-07-02T05:00:14;12.30;;;5.18;;
80381;SDS011;69692;55.820;37.490;2023-07-02T05:02:41;6.35;;;4.47;;
80381;SDS011;69692;55.820;37.490;2023-07-02T05:05:07;7.35;;;5.07;;
80381;SDS011;69692;55.820;37.490;2023-07-02T05:07:33;10.18;;;5.40;;
80381;SDS011;69692;55.820;37.490;2023-07-02T05:09:59;10.18;;;4.60;;
80381;SDS011;69692;55.820;37.490;2023-07-02T05:12:27;7.68;;;5.13;;
80381;SDS011;69692;55.820;37.490;2023-07-02T05:14:53;9.98;;;5.13;;
80381;SDS011;69692;55.820;37.490;2023-07-02T05:17:19;6.45;;;4.75;;
80381;SDS011;69692;55.820;37.490;2023-07-02T05:19:44;6.40;;;4.70;;
80381;SDS011;69692;55.820;37.490;2023-07-02T05:22:10;8.23;;;6.07;;
80381;SDS011;69692;55.820;37.490;2023-07-02T05:24:36;7.93;;;4.95;;
80381;SDS011;69692;55.820;37.490;2023-07-02T05:27:02;7.18;;;5.15;;
80381;SDS011;69692;55.820;37.490;2023-07-02T05:29:29;6.43;;;5.20;;
80381;SDS011;69692;55.820;37.490;2023-07-02T05:31:55;9.65;;;5.53;;
80381;SDS011;69692;55.820;37.490;2023-07-02T05:34:21;7.60;;;5.10;;
80381;SDS011;69692;55.820;37.490;2023-07-02T05:36:47;9.80;;;5.07;;
80381;SDS011;69692;55.820;37.490;2023-07-02T05:39:13;6.75;;;5.00;;
80381;SDS011;69692;55.820;37.490;2023-07-02T05:41:38;7.30;;;5.00;;
80381;SDS011;69692;55.820;37.490;2023-07-02T05:44:04;6.90;;;4.90;;
80381;SDS011;69692;55.820;37.490;2023-07-02T05:46:30;7.30;;;4.70;;
80381;SDS011;69692;55.820;37.490;2023-07-02T05:48:56;7.07;;;5.10;;
80381;SDS011;69692;55.820;37.490;2023-07-02T05:51:23;11.25;;;4.97;;
80381;SDS011;69692;55.820;37.490;2023-07-02T05:53:50;7.85;;;4.85;;
80381;SDS011;69692;55.820;37.490;2023-07-02T05:56:17;6.55;;;4.72;;
80381;SDS011;69692;55.820;37.490;2023-07-02T05:58:44;9.52;;;5.05;;
80381;SDS011;69692;55.820;37.490;2023-07-02T06:01:12;10.95;;;5.03;;
80381;SDS011;69692;55.820;37.490;2023-07-02T06:03:38;7.72;;;4.97;;
80381;SDS011;69692;55.820;37.490;2023-07-02T06:06:04;7.05;;;4.93;;
80381;SDS011;69692;55.820;37.490;2023-07-02T06:08:30;10.35;;;4.80;;
80381;SDS011;69692;55.820;37.490;2023-07-02T06:10:56;7.38;;;5.63;;
80381;SDS011;69692;55.820;37.490;2023-07-02T06:13:22;6.35;;;4.20;;
80381;SDS011;69692;55.820;37.490;2023-07-02T06:15:48;7.47;;;3.97;;
80381;SDS011;69692;55.820;37.490;2023-07-02T06:18:13;7.18;;;4.28;;
80381;SDS011;69692;55.820;37.490;2023-07-02T06:20:39;8.32;;;4.75;;
80381;SDS011;69692;55.820;37.490;2023-07-02T06:23:05;8.95;;;4.68;;
80381;SDS011;69692;55.820;37.490;2023-07-02T06:25:31;6.40;;;4.85;;
80381;SDS011;69692;55.820;37.490;2023-07-02T06:27:57;7.53;;;4.78;;
80381;SDS011;69692;55.820;37.490;2023-07-02T06:30:24;8.00;;;4.70;;
80381;SDS011;69692;55.820;37.490;2023-07-02T06:32:50;5.95;;;4.20;;
80381;SDS011;69692;55.820;37.490;2023-07-02T06:35:17;6.82;;;4.45;;
80381;SDS011;69692;55.820;37.490;2023-07-02T06:37:43;5.90;;;4.55;;
80381;SDS011;69692;55.820;37.490;2023-07-02T06:40:09;8.00;;;4.97;;
80381;SDS011;69692;55.820;37.490;2023-07-02T06:42:35;8.63;;;4.32;;
80381;SDS011;69692;55.820;37.490;2023-07-02T06:45:04;6.68;;;4.57;;
80381;SDS011;69692;55.820;37.490;2023-07-02T06:47:32;6.57;;;4.95;;
80381;SDS011;69692;55.820;37.490;2023-07-02T06:49:58;8.88;;;5.22;;
80381;SDS011;69692;55.820;37.490;2023-07-02T06:52:25;9.57;;;4.18;;
80381;SDS011;69692;55.820;37.490;2023-07-02T06:54:51;8.65;;;4.55;;
80381;SDS011;69692;55.820;37.490;2023-07-02T06:57:17;6.30;;;4.10;;
80381;SDS011;69692;55.820;37.490;2023-07-02T06:59:44;7.20;;;4.30;;
80381;SDS011;69692;55.820;37.490;2023-07-02T07:02:10;6.10;;;4.00;;
80381;SDS011;69692;55.820;37.490;2023-07-02T07:04:36;6.72;;;4.22;;
80381;SDS011;69692;55.820;37.490;2023-07-02T07:07:03;5.90;;;4.53;;
80381;SDS011;69692;55.820;37.490;2023-07-02T07:09:29;9.43;;;4.68;;
80381;SDS011;69692;55.820;37.490;2023-07-02T07:11:56;5.90;;;4.32;;
80381;SDS011;69692;55.820;37.490;2023-07-02T07:14:22;6.57;;;4.40;;
80381;SDS011;69692;55.820;37.490;2023-07-02T07:16:48;7.78;;;4.45;;
80381;SDS011;69692;55.820;37.490;2023-07-02T07:19:15;6.50;;;4.38;;
80381;SDS011;69692;55.820;37.490;2023-07-02T07:21:41;6.18;;;4.15;;
80381;SDS011;69692;55.820;37.490;2023-07-02T07:24:09;6.25;;;4.07;;
80381;SDS011;69692;55.820;37.490;2023-07-02T07:26:35;8.70;;;4.70;;
80381;SDS011;69692;55.820;37.490;2023-07-02T07:29:01;9.52;;;4.40;;
80381;SDS011;69692;55.820;37.490;2023-07-02T07:31:27;5.88;;;4.05;;
80381;SDS011;69692;55.820;37.490;2023-07-02T07:33:53;7.03;;;4.10;;
80381;SDS011;69692;55.820;37.490;2023-07-02T07:36:18;6.97;;;3.88;;
80381;SDS011;69692;55.820;37.490;2023-07-02T07:38:44;6.60;;;4.13;;
80381;SDS011;69692;55.820;37.490;2023-07-02T07:41:10;7.43;;;4.15;;
80381;SDS011;69692;55.820;37.490;2023-07-02T07:43:36;6.13;;;4.25;;
80381;SDS011;69692;55.820;37.490;2023-07-02T07:46:02;7.07;;;3.92;;
80381;SDS011;69692;55.820;37.490;2023-07-02T07:48:28;6.20;;;4.15;;
80381;SDS011;69692;55.820;37.490;2023-07-02T07:50:53;5.85;;;3.50;;
80381;SDS011;69692;55.820;37.490;2023-07-02T07:53:19;7.28;;;3.78;;
80381;SDS011;69692;55.820;37.490;2023-07-02T07:55:45;11.55;;;5.03;;
80381;SDS011;69692;55.820;37.490;2023-07-02T07:58:11;11.10;;;4.50;;
80381;SDS011;69692;55.820;37.490;2023-07-02T08:00:37;5.10;;;3.63;;
80381;SDS011;69692;55.820;37.490;2023-07-02T08:03:03;6.05;;;3.70;;
80381;SDS011;69692;55.820;37.490;2023-07-02T08:05:29;6.22;;;3.55;;
80381;SDS011;69692;55.820;37.490;2023-07-02T08:07:56;5.25;;;3.60;;
80381;SDS011;69692;55.820;37.490;2023-07-02T08:10:22;6.50;;;3.60;;
80381;SDS011;69692;55.820;37.490;2023-07-02T08:12:49;7.15;;;3.55;;
80381;SDS011;69692;55.820;37.490;2023-07-02T08:15:17;4.57;;;3.47;;
80381;SDS011;69692;55.820;37.490;2023-07-02T08:17:44;8.25;;;3.58;;
80381;SDS011;69692;55.820;37.490;2023-07-02T08:20:10;7.32;;;3.80;;
80381;SDS011;69692;55.820;37.490;2023-07-02T08:22:37;7.78;;;3.88;;
80381;SDS011;69692;55.820;37.490;2023-07-02T08:25:04;5.80;;;3.67;;
80381;SDS011;69692;55.820;37.490;2023-07-02T08:27:31;5.85;;;3.08;;
80381;SDS011;69692;55.820;37.490;2023-07-02T08:29:57;7.93;;;3.65;;
80381;SDS011;69692;55.820;37.490;2023-07-02T08:32:22;6.03;;;3.42;;
80381;SDS011;69692;55.820;37.490;2023-07-02T08:34:48;5.35;;;3.33;;
80381;SDS011;69692;55.820;37.490;2023-07-02T08:37:16;5.97;;;3.28;;
80381;SDS011;69692;55.820;37.490;2023-07-02T08:39:43;6.53;;;3.72;;
80381;SDS011;69692;55.820;37.490;2023-07-02T08:42:09;6.72;;;3.50;;
80381;SDS011;69692;55.820;37.490;2023-07-02T08:44:35;6.13;;;3.83;;
80381;SDS011;69692;55.820;37.490;2023-07-02T08:47:01;7.18;;;3.53;;
80381;SDS011;69692;55.820;37.490;2023-07-02T08:49:28;7.00;;;3.53;;
80381;SDS011;69692;55.820;37.490;2023-07-02T08:51:54;4.70;;;3.08;;
80381;SDS011;69692;55.820;37.490;2023-07-02T08:54:20;4.50;;;3.17;;
80381;SDS011;69692;55.820;37.490;2023-07-02T08:56:46;8.25;;;3.50;;
80381;SDS011;69692;55.820;37.490;2023-07-02T08:59:15;7.72;;;4.35;;
80381;SDS011;69692;55.820;37.490;2023-07-02T09:06:47;6.07;;;3.47;;
80381;SDS011;69692;55.820;37.490;2023-07-02T09:09:14;8.10;;;3.33;;
80381;SDS011;69692;55.820;37.490;2023-07-02T09:11:46;7.05;;;3.40;;
80381;SDS011;69692;55.820;37.490;2023-07-02T09:14:28;8.52;;;3.58;;
80381;SDS011;69692;55.820;37.490;2023-07-02T09:17:01;7.32;;;3.92;;
80381;SDS011;69692;55.820;37.490;2023-07-02T09:19:29;7.93;;;3.67;;
80381;SDS011;69692;55.820;37.490;2023-07-02T09:21:56;7.20;;;3.90;;
80381;SDS011;69692;55.820;37.490;2023-07-02T09:24:25;8.38;;;3.72;;
80381;SDS011;69692;55.820;37.490;2023-07-02T09:26:54;6.47;;;3.30;;
80381;SDS011;69692;55.820;37.490;2023-07-02T09:31:50;6.90;;;3.58;;
80381;SDS011;69692;55.820;37.490;2023-07-02T09:34:16;9.18;;;4.65;;
80381;SDS011;69692;55.820;37.490;2023-07-02T09:36:43;6.22;;;3.60;;
80381;SDS011;69692;55.820;37.490;2023-07-02T09:39:17;7.50;;;3.53;;
80381;SDS011;69692;55.820;37.490;2023-07-02T09:41:44;6.65;;;4.55;;
80381;SDS011;69692;55.820;37.490;2023-07-02T09:44:14;10.73;;;4.45;;
80381;SDS011;69692;55.820;37.490;2023-07-02T09:46:42;7.88;;;3.67;;
80381;SDS011;69692;55.820;37.490;2023-07-02T09:49:14;8.63;;;3.97;;
80381;SDS011;69692;55.820;37.490;2023-07-02T09:51:45;8.20;;;3.90;;
80381;SDS011;69692;55.820;37.490;2023-07-02T09:54:11;5.10;;;3.58;;
80381;SDS011;69692;55.820;37.490;2023-07-02T09:56:39;6.13;;;3.60;;
80381;SDS011;69692;55.820;37.490;2023-07-02T09:59:05;6.90;;;3.90;;
80381;SDS011;69692;55.820;37.490;2023-07-02T10:01:31;7.55;;;4.10;;
80381;SDS011;69692;55.820;37.490;2023-07-02T10:03:57;5.45;;;3.80;;
80381;SDS011;69692;55.820;37.490;2023-07-02T10:06:22;5.95;;;3.92;;
80381;SDS011;69692;55.820;37.490;2023-07-02T10:08:54;8.93;;;4.25;;
80381;SDS011;69692;55.820;37.490;2023-07-02T10:11:21;5.15;;;3.40;;
80381;SDS011;69692;55.820;37.490;2023-07-02T10:13:59;5.78;;;3.40;;
80381;SDS011;69692;55.820;37.490;2023-07-02T10:16:25;6.38;;;3.70;;
80381;SDS011;69692;55.820;37.490;2023-07-02T10:21:36;8.70;;;4.07;;
80381;SDS011;69692;55.820;37.490;2023-07-02T10:24:08;7.80;;;3.70;;
80381;SDS011;69692;55.820;37.490;2023-07-02T10:26:38;7.50;;;3.63;;
80381;SDS011;69692;55.820;37.490;2023-07-02T10:29:05;6.20;;;3.90;;
80381;SDS011;69692;55.820;37.490;2023-07-02T10:31:31;7.68;;;4.13;;
80381;SDS011;69692;55.820;37.490;2023-07-02T10:33:57;9.10;;;3.92;;
80381;SDS011;69692;55.820;37.490;2023-07-02T10:36:24;5.72;;;3.88;;
80381;SDS011;69692;55.820;37.490;2023-07-02T10:38:50;6.13;;;3.63;;
80381;SDS011;69692;55.820;37.490;2023-07-02T10:41:23;4.80;;;3.70;;
80381;SDS011;69692;55.820;37.490;2023-07-02T10:43:51;5.38;;;3.95;;
80381;SDS011;69692;55.820;37.490;2023-07-02T10:46:20;7.13;;;3.65;;
80381;SDS011;69692;55.820;37.490;2023-07-02T10:51:19;6.82;;;3.83;;
80381;SDS011;69692;55.820;37.490;2023-07-02T10:53:46;6.18;;;3.90;;
80381;SDS011;69692;55.820;37.490;2023-07-02T10:56:24;5.60;;;3.90;;
80381;SDS011;69692;55.820;37.490;2023-07-02T10:58:51;6.22;;;3.67;;
80381;SDS011;69692;55.820;37.490;2023-07-02T11:04:00;6.22;;;3.55;;
80381;SDS011;69692;55.820;37.490;2023-07-02T11:06:27;6.03;;;4.07;;
80381;SDS011;69692;55.820;37.490;2023-07-02T11:08:54;5.78;;;3.85;;
80381;SDS011;69692;55.820;37.490;2023-07-02T11:11:20;6.47;;;3.60;;
80381;SDS011;69692;55.820;37.490;2023-07-02T11:13:48;8.35;;;3.63;;
80381;SDS011;69692;55.820;37.490;2023-07-02T11:16:23;8.00;;;3.92;;
80381;SDS011;69692;55.820;37.490;2023-07-02T11:18:52;7.28;;;3.95;;
80381;SDS011;69692;55.820;37.490;2023-07-02T11:21:18;6.57;;;3.05;;
80381;SDS011;69692;55.820;37.490;2023-07-02T11:23:44;5.47;;;3.13;;
80381;SDS011;69692;55.820;37.490;2023-07-02T11:26:10;7.18;;;3.70;;
80381;SDS011;69692;55.820;37.490;2023-07-02T11:28:36;4.75;;;3.22;;
80381;SDS011;69692;55.820;37.490;2023-07-02T11:31:13;4.82;;;3.28;;
80381;SDS011;69692;55.820;37.490;2023-07-02T11:33:39;5.50;;;3.30;;
80381;SDS011;69692;55.820;37.490;2023-07-02T11:36:06;4.90;;;3.75;;
80381;SDS011;69692;55.820;37.490;2023-07-02T11:38:34;4.68;;;3.10;;
80381;SDS011;69692;55.820;37.490;2023-07-02T11:41:02;5.80;;;3.25;;
80381;SDS011;69692;55.820;37.490;2023-07-02T11:43:29;6.75;;;3.15;;
80381;SDS011;69692;55.820;37.490;2023-07-02T11:45:55;5.20;;;3.22;;
80381;SDS011;69692;55.820;37.490;2023-07-02T11:48:20;9.45;;;4.15;;
80381;SDS011;69692;55.820;37.490;2023-07-02T11:50:46;9.75;;;3.60;;
80381;SDS011;69692;55.820;37.490;2023-07-02T11:53:12;7.47;;;3.60;;
80381;SDS011;69692;55.820;37.490;2023-07-02T11:55:38;5.60;;;2.95;;
80381;SDS011;69692;55.820;37.490;2023-07-02T11:58:04;8.15;;;3.50;;
80381;SDS011;69692;55.820;37.490;2023-07-02T12:00:30;7.05;;;3.40;;
80381;SDS011;69692;55.820;37.490;2023-07-02T12:02:56;11.75;;;3.42;;
80381;SDS011;69692;55.820;37.490;2023-07-02T12:05:21;6.10;;;3.60;;
80381;SDS011;69692;55.820;37.490;2023-07-02T12:07:47;6.28;;;3.22;;
80381;SDS011;69692;55.820;37.490;2023-07-02T12:10:13;5.50;;;2.97;;
80381;SDS011;69692;55.820;37.490;2023-07-02T12:12:39;8.82;;;3.20;;
80381;SDS011;69692;55.820;37.490;2023-07-02T12:15:04;7.03;;;3.40;;
80381;SDS011;69692;55.820;37.490;2023-07-02T12:17:31;4.80;;;3.28;;
80381;SDS011;69692;55.820;37.490;2023-07-02T12:19:57;6.05;;;3.25;;
80381;SDS011;69692;55.820;37.490;2023-07-02T12:22:23;6.45;;;3.10;;
80381;SDS011;69692;55.820;37.490;2023-07-02T12:24:49;6.68;;;3.38;;
80381;SDS011;69692;55.820;37.490;2023-07-02T12:27:15;5.82;;;3.60;;
80381;SDS011;69692;55.820;37.490;2023-07-02T12:29:42;7.93;;;3.22;;
80381;SDS011;69692;55.820;37.490;2023-07-02T12:32:08;8.07;;;3.03;;
80381;SDS011;69692;55.820;37.490;2023-07-02T12:34:33;6.80;;;3.88;;
80381;SDS011;69692;55.820;37.490;2023-07-02T12:36:59;6.15;;;3.72;;
80381;SDS011;69692;55.820;37.490;2023-07-02T12:39:25;5.90;;;3.50;;
80381;SDS011;69692;55.820;37.490;2023-07-02T12:41:52;6.25;;;3.97;;
80381;SDS011;69692;55.820;37.490;2023-07-02T12:44:17;7.13;;;3.42;;
80381;SDS011;69692;55.820;37.490;2023-07-02T12:46:43;7.65;;;3.83;;
80381;SDS011;69692;55.820;37.490;2023-07-02T12:49:09;5.80;;;3.65;;
80381;SDS011;69692;55.820;37.490;2023-07-02T12:51:35;8.18;;;3.80;;
80381;SDS011;69692;55.820;37.490;2023-07-02T12:54:01;6.35;;;3.50;;
80381;SDS011;69692;55.820;37.490;2023-07-02T12:56:26;9.55;;;3.85;;
80381;SDS011;69692;55.820;37.490;2023-07-02T12:58:52;5.20;;;3.13;;
80381;SDS011;69692;55.820;37.490;2023-07-02T13:01:18;6.63;;;3.80;;
80381;SDS011;69692;55.820;37.490;2023-07-02T13:03:47;6.13;;;3.85;;
80381;SDS011;69692;55.820;37.490;2023-07-02T13:06:13;7.97;;;4.03;;
80381;SDS011;69692;55.820;37.490;2023-07-02T13:08:39;6.03;;;3.38;;
80381;SDS011;69692;55.820;37.490;2023-07-02T13:11:05;5.53;;;4.07;;
80381;SDS011;69692;55.820;37.490;2023-07-02T13:13:32;5.95;;;3.65;;
80381;SDS011;69692;55.820;37.490;2023-07-02T13:15:58;7.30;;;3.78;;
80381;SDS011;69692;55.820;37.490;2023-07-02T13:18:24;8.57;;;3.78;;
80381;SDS011;69692;55.820;37.490;2023-07-02T13:20:50;5.90;;;3.50;;
80381;SDS011;69692;55.820;37.490;2023-07-02T13:23:16;9.32;;;4.30;;
80381;SDS011;69692;55.820;37.490;2023-07-02T13:25:42;4.95;;;3.33;;
80381;SDS011;69692;55.820;37.490;2023-07-02T13:28:08;6.97;;;4.28;;
80381;SDS011;69692;55.820;37.490;2023-07-02T13:30:33;5.18;;;3.67;;
80381;SDS011;69692;55.820;37.490;2023-07-02T13:32:59;5.93;;;4.38;;
80381;SDS011;69692;55.820;37.490;2023-07-02T13:35:25;6.53;;;4.45;;
80381;SDS011;69692;55.820;37.490;2023-07-02T13:37:51;5.95;;;3.47;;
80381;SDS011;69692;55.820;37.490;2023-07-02T13:40:17;6.82;;;3.70;;
80381;SDS011;69692;55.820;37.490;2023-07-02T13:42:44;6.53;;;3.58;;
80381;SDS011;69692;55.820;37.490;2023-07-02T13:45:10;6.18;;;3.50;;
80381;SDS011;69692;55.820;37.490;2023-07-02T13:47:36;8.18;;;3.88;;
80381;SDS011;69692;55.820;37.490;2023-07-02T13:50:03;6.43;;;4.10;;
80381;SDS011;69692;55.820;37.490;2023-07-02T13:52:30;7.22;;;4.00;;
80381;SDS011;69692;55.820;37.490;2023-07-02T13:54:56;7.38;;;3.92;;
80381;SDS011;69692;55.820;37.490;2023-07-02T13:57:21;8.63;;;3.72;;
80381;SDS011;69692;55.820;37.490;2023-07-02T13:59:47;7.53;;;4.15;;
80381;SDS011;69692;55.820;37.490;2023-07-02T14:02:13;7.28;;;4.57;;
80381;SDS011;69692;55.820;37.490;2023-07-02T14:04:39;10.70;;;3.88;;
80381;SDS011;69692;55.820;37.490;2023-07-02T14:07:05;7.03;;;3.97;;
80381;SDS011;69692;55.820;37.490;2023-07-02T14:09:31;8.02;;;3.95;;
80381;SDS011;69692;55.820;37.490;2023-07-02T14:11:57;6.03;;;4.13;;
80381;SDS011;69692;55.820;37.490;2023-07-02T14:14:23;9.35;;;4.15;;
80381;SDS011;69692;55.820;37.490;2023-07-02T14:16:49;7.30;;;4.53;;
80381;SDS011;69692;55.820;37.490;2023-07-02T14:19:15;5.25;;;3.40;;
80381;SDS011;69692;55.820;37.490;2023-07-02T14:21:42;8.15;;;4.25;;
80381;SDS011;69692;55.820;37.490;2023-07-02T14:24:08;6.72;;;4.32;;
80381;SDS011;69692;55.820;37.490;2023-07-02T14:26:34;6.80;;;4.00;;
80381;SDS011;69692;55.820;37.490;2023-07-02T14:29:00;6.45;;;3.95;;
80381;SDS011;69692;55.820;37.490;2023-07-02T14:31:26;5.85;;;4.05;;
80381;SDS011;69692;55.820;37.490;2023-07-02T14:33:52;9.57;;;4.45;;
80381;SDS011;69692;55.820;37.490;2023-07-02T14:36:18;8.50;;;4.50;;
80381;SDS011;69692;55.820;37.490;2023-07-02T14:38:44;6.93;;;4.30;;
80381;SDS011;69692;55.820;37.490;2023-07-02T14:41:10;9.30;;;4.55;;
80381;SDS011;69692;55.820;37.490;2023-07-02T14:43:36;6.57;;;4.45;;
80381;SDS011;69692;55.820;37.490;2023-07-02T14:46:02;7.28;;;4.25;;
80381;SDS011;69692;55.820;37.490;2023-07-02T14:48:29;7.95;;;4.15;;
80381;SDS011;69692;55.820;37.490;2023-07-02T14:50:56;6.43;;;4.03;;
80381;SDS011;69692;55.820;37.490;2023-07-02T14:53:24;9.13;;;4.55;;
80381;SDS011;69692;55.820;37.490;2023-07-02T14:55:53;8.35;;;4.40;;